sensor_id;sensor_type;location;lat;lon;timestamp;pressure;altitude;pressure_sealevel;temperature;humidity
70370;BME280;57790;51.356;-2.906;2023-02-17T00:02:26;102357.53;;;11.68;100.00
70370;BME280;57790;51.356;-2.906;2023-02-17T00:05:27;102357.66;;;11.67;100.00
70370;BME280;57790;51.356;-2.906;2023-02-17T00:08:27;102363.69;;;11.69;100.00
70370;BME280;57790;51.356;-2.906;2023-02-17T00:11:27;102367.31;;;11.68;100.00
70370;BME280;57790;51.356;-2.906;2023-02-17T00:14:28;102368.16;;;11.68;100.00
70370;BME280;57790;51.356;-2.906;2023-02-17T00:17:28;102372.75;;;11.66;100.00
70370;BME280;57790;51.356;-2.906;2023-02-17T00:20:29;102365.75;;;11.65;100.00
70370;BME280;57790;51.356;-2.906;2023-02-17T00:23:29;102369.41;;;11.64;100.00
70370;BME280;57790;51.356;-2.906;2023-02-17T00:26:30;102372.19;;;11.62;100.00
70370;BME280;57790;51.356;-2.906;2023-02-17T00:29:30;102380.03;;;11.64;100.00
70370;BME280;57790;51.356;-2.906;2023-02-17T00:32:31;102374.72;;;11.64;100.00
70370;BME280;57790;51.356;-2.906;2023-02-17T00:35:31;102378.19;;;11.65;100.00
70370;BME280;57790;51.356;-2.906;2023-02-17T00:38:32;102370.22;;;11.65;100.00
70370;BME280;57790;51.356;-2.906;2023-02-17T00:41:33;102376.66;;;11.62;100.00
70370;BME280;57790;51.356;-2.906;2023-02-17T00:44:33;102368.56;;;11.63;100.00
70370;BME280;57790;51.356;-2.906;2023-02-17T00:47:34;102363.38;;;11.62;100.00
70370;BME280;57790;51.356;-2.906;2023-02-17T00:50:34;102366.03;;;11.62;100.00
70370;BME280;57790;51.356;-2.906;2023-02-17T00:53:35;102354.28;;;11.65;100.00
70370;BME280;57790;51.356;-2.906;2023-02-17T00:56:36;102343.66;;;11.65;100.00
70370;BME280;57790;51.356;-2.906;2023-02-17T00:59:36;102356.38;;;11.61;100.00
70370;BME280;57790;51.356;-2.906;2023-02-17T01:02:36;102359.28;;;11.58;100.00
70370;BME280;57790;51.356;-2.906;2023-02-17T01:05:45;102356.75;;;11.56;100.00
70370;BME280;57790;51.356;-2.906;2023-02-17T01:08:45;102345.19;;;11.57;100.00
70370;BME280;57790;51.356;-2.906;2023-02-17T01:11:46;102341.66;;;11.57;100.00
70370;BME280;57790;51.356;-2.906;2023-02-17T01:14:46;102338.16;;;11.56;100.00
70370;BME280;57790;51.356;-2.906;2023-02-17T01:17:47;102337.22;;;11.57;100.00
70370;BME280;57790;51.356;-2.906;2023-02-17T01:20:47;102347.09;;;11.55;100.00
70370;BME280;57790;51.356;-2.906;2023-02-17T01:23:52;102356.88;;;11.55;100.00
70370;BME280;57790;51.356;-2.906;2023-02-17T01:26:53;102352.53;;;11.54;100.00
70370;BME280;57790;51.356;-2.906;2023-02-17T01:29:53;102345.53;;;11.53;100.00
70370;BME280;57790;51.356;-2.906;2023-02-17T01:32:53;102349.16;;;11.52;100.00
70370;BME280;57790;51.356;-2.906;2023-02-17T01:35:54;102353.38;;;11.54;100.00
70370;BME280;57790;51.356;-2.906;2023-02-17T01:38:54;102357.13;;;11.52;100.00
70370;BME280;57790;51.356;-2.906;2023-02-17T01:41:55;102360.75;;;11.51;100.00
70370;BME280;57790;51.356;-2.906;2023-02-17T01:48:20;102369.56;;;11.51;100.00
70370;BME280;57790;51.356;-2.906;2023-02-17T01:51:27;102372.09;;;11.53;100.00
70370;BME280;57790;51.356;-2.906;2023-02-17T01:54:37;102367.75;;;11.52;100.00
70370;BME280;57790;51.356;-2.906;2023-02-17T01:57:40;102365.94;;;11.52;100.00
70370;BME280;57790;51.356;-2.906;2023-02-17T02:00:42;102359.94;;;11.50;100.00
70370;BME280;57790;51.356;-2.906;2023-02-17T02:03:43;102376.56;;;11.52;100.00
70370;BME280;57790;51.356;-2.906;2023-02-17T02:06:43;102380.06;;;11.53;100.00
70370;BME280;57790;51.356;-2.906;2023-02-17T02:09:55;102371.25;;;11.52;100.00
70370;BME280;57790;51.356;-2.906;2023-02-17T02:12:56;102389.41;;;11.47;100.00
70370;BME280;57790;51.356;-2.906;2023-02-17T02:19:26;102384.34;;;11.44;100.00
70370;BME280;57790;51.356;-2.906;2023-02-17T02:35:51;102368.16;;;11.47;100.00
70370;BME280;57790;51.356;-2.906;2023-02-17T02:39:15;102378.31;;;11.42;100.00
70370;BME280;57790;51.356;-2.906;2023-02-17T02:42:20;102369.50;;;11.42;100.00
70370;BME280;57790;51.356;-2.906;2023-02-17T02:45:21;102383.03;;;11.39;100.00
70370;BME280;57790;51.356;-2.906;2023-02-17T02:48:22;102374.22;;;11.38;100.00
70370;BME280;57790;51.356;-2.906;2023-02-17T03:01:05;102384.72;;;11.40;100.00
70370;BME280;57790;51.356;-2.906;2023-02-17T03:04:37;102373.25;;;11.39;100.00
70370;BME280;57790;51.356;-2.906;2023-02-17T03:07:47;102366.38;;;11.37;100.00
70370;BME280;57790;51.356;-2.906;2023-02-17T03:10:52;102356.34;;;11.40;100.00
70370;BME280;57790;51.356;-2.906;2023-02-17T03:13:53;102360.81;;;11.40;100.00
70370;BME280;57790;51.356;-2.906;2023-02-17T03:16:54;102363.47;;;11.40;100.00
70370;BME280;57790;51.356;-2.906;2023-02-17T03:19:55;102349.63;;;11.36;100.00
70370;BME280;57790;51.356;-2.906;2023-02-17T03:22:55;102349.75;;;11.35;100.00
70370;BME280;57790;51.356;-2.906;2023-02-17T03:25:56;102351.56;;;11.34;100.00
70370;BME280;57790;51.356;-2.906;2023-02-17T03:28:58;102342.63;;;11.35;100.00
70370;BME280;57790;51.356;-2.906;2023-02-17T03:31:58;102346.25;;;11.34;100.00
70370;BME280;57790;51.356;-2.906;2023-02-17T03:34:59;102350.31;;;11.38;100.00
70370;BME280;57790;51.356;-2.906;2023-02-17T03:37:59;102345.97;;;11.37;100.00
70370;BME280;57790;51.356;-2.906;2023-02-17T03:41:00;102350.72;;;11.33;100.00
70370;BME280;57790;51.356;-2.906;2023-02-17T03:44:00;102346.50;;;11.31;100.00
70370;BME280;57790;51.356;-2.906;2023-02-17T03:47:01;102340.22;;;11.32;100.00
70370;BME280;57790;51.356;-2.906;2023-02-17T03:50:02;102349.03;;;11.32;100.00
70370;BME280;57790;51.356;-2.906;2023-02-17T03:53:02;102340.50;;;11.29;100.00
70370;BME280;57790;51.356;-2.906;2023-02-17T03:56:04;102337.84;;;11.29;100.00
70370;BME280;57790;51.356;-2.906;2023-02-17T03:59:05;102341.44;;;11.28;100.00
70370;BME280;57790;51.356;-2.906;2023-02-17T04:02:05;102355.56;;;11.28;100.00
70370;BME280;57790;51.356;-2.906;2023-02-17T04:05:06;102337.84;;;11.29;100.00
70370;BME280;57790;51.356;-2.906;2023-02-17T04:08:07;102328.28;;;11.26;100.00
70370;BME280;57790;51.356;-2.906;2023-02-17T04:11:08;102330.81;;;11.28;100.00
70370;BME280;57790;51.356;-2.906;2023-02-17T04:14:09;102322.00;;;11.27;100.00
70370;BME280;57790;51.356;-2.906;2023-02-17T04:17:09;102325.63;;;11.26;100.00
70370;BME280;57790;51.356;-2.906;2023-02-17T04:20:10;102326.25;;;11.30;100.00
70370;BME280;57790;51.356;-2.906;2023-02-17T04:23:11;102324.78;;;11.26;100.00
70370;BME280;57790;51.356;-2.906;2023-02-17T04:26:13;102326.47;;;11.27;100.00
70370;BME280;57790;51.356;-2.906;2023-02-17T04:29:14;102315.97;;;11.25;100.00
70370;BME280;57790;51.356;-2.906;2023-02-17T04:32:14;102308.16;;;11.24;100.00
70370;BME280;57790;51.356;-2.906;2023-02-17T04:35:15;102308.03;;;11.25;100.00
70370;BME280;57790;51.356;-2.906;2023-02-17T04:38:15;102309.84;;;11.25;100.00
70370;BME280;57790;51.356;-2.906;2023-02-17T04:41:16;102311.50;;;11.26;100.00
70370;BME280;57790;51.356;-2.906;2023-02-17T04:44:16;102309.69;;;11.26;100.00
70370;BME280;57790;51.356;-2.906;2023-02-17T04:47:16;102303.31;;;11.29;100.00
70370;BME280;57790;51.356;-2.906;2023-02-17T04:50:17;102298.94;;;11.28;100.00
70370;BME280;57790;51.356;-2.906;2023-02-17T04:53:18;102294.25;;;11.31;100.00
70370;BME280;57790;51.356;-2.906;2023-02-17T04:56:18;102298.00;;;11.29;100.00
70370;BME280;57790;51.356;-2.906;2023-02-17T04:59:18;102294.38;;;11.30;100.00
70370;BME280;57790;51.356;-2.906;2023-02-17T05:02:19;102299.22;;;11.25;100.00
70370;BME280;57790;51.356;-2.906;2023-02-17T05:05:19;102286.66;;;11.27;100.00
70370;BME280;57790;51.356;-2.906;2023-02-17T05:08:20;102292.81;;;11.27;100.00
70370;BME280;57790;51.356;-2.906;2023-02-17T05:11:21;102296.28;;;11.28;100.00
70370;BME280;57790;51.356;-2.906;2023-02-17T05:14:22;102293.78;;;11.26;100.00
70370;BME280;57790;51.356;-2.906;2023-02-17T05:17:22;102302.47;;;11.28;100.00
70370;BME280;57790;51.356;-2.906;2023-02-17T05:20:23;102300.91;;;11.26;100.00
70370;BME280;57790;51.356;-2.906;2023-02-17T05:23:23;102297.28;;;11.27;100.00
70370;BME280;57790;51.356;-2.906;2023-02-17T05:26:24;102294.75;;;11.25;100.00
70370;BME280;57790;51.356;-2.906;2023-02-17T05:29:24;102297.53;;;11.24;100.00
70370;BME280;57790;51.356;-2.906;2023-02-17T05:32:25;102279.91;;;11.23;100.00
70370;BME280;57790;51.356;-2.906;2023-02-17T05:35:25;102287.75;;;11.24;100.00
70370;BME280;57790;51.356;-2.906;2023-02-17T05:38:25;102289.31;;;11.27;100.00
70370;BME280;57790;51.356;-2.906;2023-02-17T05:41:26;102293.63;;;11.28;100.00
70370;BME280;57790;51.356;-2.906;2023-02-17T05:44:27;102291.97;;;11.27;100.00
70370;BME280;57790;51.356;-2.906;2023-02-17T05:47:28;102298.94;;;11.28;100.00
70370;BME280;57790;51.356;-2.906;2023-02-17T05:50:28;102287.63;;;11.26;100.00
70370;BME280;57790;51.356;-2.906;2023-02-17T05:53:29;102284.00;;;11.27;100.00
70370;BME280;57790;51.356;-2.906;2023-02-17T05:56:29;102304.53;;;11.25;100.00
70370;BME280;57790;51.356;-2.906;2023-02-17T05:59:30;102288.47;;;11.26;100.00
70370;BME280;57790;51.356;-2.906;2023-02-17T06:02:30;102288.47;;;11.26;100.00
70370;BME280;57790;51.356;-2.906;2023-02-17T06:05:31;102295.94;;;11.32;100.00
70370;BME280;57790;51.356;-2.906;2023-02-17T06:08:31;102277.63;;;11.29;100.00
70370;BME280;57790;51.356;-2.906;2023-02-17T06:11:32;102279.44;;;11.29;100.00
70370;BME280;57790;51.356;-2.906;2023-02-17T06:14:32;102282.91;;;11.29;100.00
70370;BME280;57790;51.356;-2.906;2023-02-17T06:17:33;102284.97;;;11.26;100.00
70370;BME280;57790;51.356;-2.906;2023-02-17T06:20:33;102296.44;;;11.26;100.00
70370;BME280;57790;51.356;-2.906;2023-02-17T06:23:34;102285.94;;;11.25;100.00
70370;BME280;57790;51.356;-2.906;2023-02-17T06:26:34;102293.63;;;11.28;100.00
70370;BME280;57790;51.356;-2.906;2023-02-17T06:29:35;102277.97;;;11.25;100.00
70370;BME280;57790;51.356;-2.906;2023-02-17T06:32:35;102276.88;;;11.27;100.00
70370;BME280;57790;51.356;-2.906;2023-02-17T06:35:35;102292.22;;;11.24;100.00
70370;BME280;57790;51.356;-2.906;2023-02-17T06:38:36;102311.78;;;11.23;100.00
70370;BME280;57790;51.356;-2.906;2023-02-17T06:41:36;102311.06;;;11.21;100.00
70370;BME280;57790;51.356;-2.906;2023-02-17T06:44:37;102318.63;;;11.25;100.00
70370;BME280;57790;51.356;-2.906;2023-02-17T06:47:37;102328.28;;;11.26;100.00
70370;BME280;57790;51.356;-2.906;2023-02-17T06:50:38;102331.91;;;11.25;100.00
70370;BME280;57790;51.356;-2.906;2023-02-17T06:53:38;102352.44;;;11.23;100.00
70370;BME280;57790;51.356;-2.906;2023-02-17T06:56:39;102347.00;;;11.25;100.00
70370;BME280;57790;51.356;-2.906;2023-02-17T06:59:39;102359.31;;;11.26;100.00
70370;BME280;57790;51.356;-2.906;2023-02-17T07:02:39;102354.84;;;11.26;100.00
70370;BME280;57790;51.356;-2.906;2023-02-17T07:05:40;102349.28;;;11.29;100.00
70370;BME280;57790;51.356;-2.906;2023-02-17T07:08:40;102346.75;;;11.28;100.00
70370;BME280;57790;51.356;-2.906;2023-02-17T07:11:41;102358.22;;;11.28;100.00
70370;BME280;57790;51.356;-2.906;2023-02-17T07:14:43;102367.97;;;11.28;100.00
70370;BME280;57790;51.356;-2.906;2023-02-17T07:17:44;102378.59;;;11.28;100.00
70370;BME280;57790;51.356;-2.906;2023-02-17T07:20:44;102391.03;;;11.27;100.00
70370;BME280;57790;51.356;-2.906;2023-02-17T07:23:44;102397.19;;;11.28;100.00
70370;BME280;57790;51.356;-2.906;2023-02-17T07:26:45;102399.59;;;11.31;100.00
70370;BME280;57790;51.356;-2.906;2023-02-17T07:29:45;102417.22;;;11.32;100.00
70370;BME280;57790;51.356;-2.906;2023-02-17T07:32:46;102411.91;;;11.32;100.00
70370;BME280;57790;51.356;-2.906;2023-02-17T07:35:46;102425.06;;;11.33;100.00
70370;BME280;57790;51.356;-2.906;2023-02-17T07:38:47;102435.69;;;11.33;100.00
70370;BME280;57790;51.356;-2.906;2023-02-17T07:41:48;102428.31;;;11.37;100.00
70370;BME280;57790;51.356;-2.906;2023-02-17T07:44:48;102437.09;;;11.38;100.00
70370;BME280;57790;51.356;-2.906;2023-02-17T07:47:48;102425.38;;;11.40;100.00
70370;BME280;57790;51.356;-2.906;2023-02-17T07:50:49;102431.78;;;11.38;100.00
70370;BME280;57790;51.356;-2.906;2023-02-17T07:53:50;102430.69;;;11.40;100.00
70370;BME280;57790;51.356;-2.906;2023-02-17T07:56:50;102425.50;;;11.39;100.00
70370;BME280;57790;51.356;-2.906;2023-02-17T07:59:51;102427.06;;;11.41;100.00
70370;BME280;57790;51.356;-2.906;2023-02-17T08:02:51;102418.88;;;11.44;100.00
70370;BME280;57790;51.356;-2.906;2023-02-17T08:05:52;102430.47;;;11.43;100.00
70370;BME280;57790;51.356;-2.906;2023-02-17T08:08:53;102433.97;;;11.44;100.00
70370;BME280;57790;51.356;-2.906;2023-02-17T08:12:16;102438.44;;;11.43;100.00
70370;BME280;57790;51.356;-2.906;2023-02-17T08:15:36;102443.00;;;11.41;100.00
70370;BME280;57790;51.356;-2.906;2023-02-17T08:18:36;102445.53;;;11.43;100.00
70370;BME280;57790;51.356;-2.906;2023-02-17T08:21:37;102451.94;;;11.40;100.00
70370;BME280;57790;51.356;-2.906;2023-02-17T08:24:37;102449.91;;;11.44;100.00
70370;BME280;57790;51.356;-2.906;2023-02-17T08:27:38;102455.31;;;11.42;100.00
70370;BME280;57790;51.356;-2.906;2023-02-17T08:30:38;102460.53;;;11.44;100.00
70370;BME280;57790;51.356;-2.906;2023-02-17T08:33:39;102468.38;;;11.45;100.00
70370;BME280;57790;51.356;-2.906;2023-02-17T08:36:39;102477.16;;;11.46;100.00
70370;BME280;57790;51.356;-2.906;2023-02-17T08:39:40;102475.09;;;11.49;100.00
70370;BME280;57790;51.356;-2.906;2023-02-17T08:42:40;102476.06;;;11.48;100.00
70370;BME280;57790;51.356;-2.906;2023-02-17T08:45:41;102489.22;;;11.50;100.00
70370;BME280;57790;51.356;-2.906;2023-02-17T08:48:41;102495.38;;;11.50;100.00
70370;BME280;57790;51.356;-2.906;2023-02-17T08:51:42;102502.50;;;11.50;100.00
70370;BME280;57790;51.356;-2.906;2023-02-17T08:54:43;102502.38;;;11.51;100.00
70370;BME280;57790;51.356;-2.906;2023-02-17T08:57:43;102511.06;;;11.53;100.00
70370;BME280;57790;51.356;-2.906;2023-02-17T09:00:44;102519.88;;;11.54;100.00
70370;BME280;57790;51.356;-2.906;2023-02-17T09:03:46;102516.38;;;11.53;100.00
70370;BME280;57790;51.356;-2.906;2023-02-17T09:06:49;102524.22;;;11.55;100.00
70370;BME280;57790;51.356;-2.906;2023-02-17T09:09:50;102520.47;;;11.57;100.00
70370;BME280;57790;51.356;-2.906;2023-02-17T09:12:50;102520.47;;;11.57;100.00
70370;BME280;57790;51.356;-2.906;2023-02-17T09:15:52;102526.63;;;11.58;100.00
70370;BME280;57790;51.356;-2.906;2023-02-17T09:18:53;102523.84;;;11.59;100.00
70370;BME280;57790;51.356;-2.906;2023-02-17T09:21:55;102529.03;;;11.61;100.00
70370;BME280;57790;51.356;-2.906;2023-02-17T09:24:55;102532.28;;;11.65;100.00
70370;BME280;57790;51.356;-2.906;2023-02-17T09:27:55;102528.31;;;11.59;100.00
70370;BME280;57790;51.356;-2.906;2023-02-17T09:30:56;102532.53;;;11.61;100.00
70370;BME280;57790;51.356;-2.906;2023-02-17T09:33:56;102519.13;;;11.63;100.00
70370;BME280;57790;51.356;-2.906;2023-02-17T09:36:57;102520.56;;;11.67;100.00
70370;BME280;57790;51.356;-2.906;2023-02-17T09:39:58;102523.09;;;11.69;100.00
70370;BME280;57790;51.356;-2.906;2023-02-17T09:42:58;102541.69;;;11.69;100.00
70370;BME280;57790;51.356;-2.906;2023-02-17T09:46:04;102529.13;;;11.71;100.00
70370;BME280;57790;51.356;-2.906;2023-02-17T09:49:24;102531.06;;;11.69;100.00
70370;BME280;57790;51.356;-2.906;2023-02-17T09:52:30;102531.53;;;11.74;100.00
70370;BME280;57790;51.356;-2.906;2023-02-17T09:55:40;102536.84;;;11.74;100.00
70370;BME280;57790;51.356;-2.906;2023-02-17T09:58:46;102536.00;;;11.73;100.00
70370;BME280;57790;51.356;-2.906;2023-02-17T10:01:50;102532.97;;;11.78;100.00
70370;BME280;57790;51.356;-2.906;2023-02-17T10:04:52;102514.63;;;11.75;100.00
70370;BME280;57790;51.356;-2.906;2023-02-17T10:08:01;102511.47;;;11.81;100.00
70370;BME280;57790;51.356;-2.906;2023-02-17T10:11:13;102524.63;;;11.82;100.00
70370;BME280;57790;51.356;-2.906;2023-02-17T10:14:23;102524.78;;;11.81;100.00
70370;BME280;57790;51.356;-2.906;2023-02-17T10:20:55;102533.31;;;11.84;100.00
70370;BME280;57790;51.356;-2.906;2023-02-17T10:23:57;102534.28;;;11.83;100.00
70370;BME280;57790;51.356;-2.906;2023-02-17T10:31:02;102526.81;;;11.88;100.00
70370;BME280;57790;51.356;-2.906;2023-02-17T10:40:23;102527.41;;;11.92;100.00
70370;BME280;57790;51.356;-2.906;2023-02-17T10:43:27;102534.41;;;11.93;100.00
70370;BME280;57790;51.356;-2.906;2023-02-17T10:46:30;102533.41;;;11.94;100.00
70370;BME280;57790;51.356;-2.906;2023-02-17T10:49:36;102515.41;;;11.98;100.00
70370;BME280;57790;51.356;-2.906;2023-02-17T10:52:39;102524.81;;;12.02;100.00
70370;BME280;57790;51.356;-2.906;2023-02-17T10:55:53;102524.34;;;11.97;100.00
70370;BME280;57790;51.356;-2.906;2023-02-17T10:59:07;102527.84;;;11.97;100.00
70370;BME280;57790;51.356;-2.906;2023-02-17T11:03:02;102520.94;;;12.06;100.00
70370;BME280;57790;51.356;-2.906;2023-02-17T11:05:58;102515.03;;;12.02;100.00
70370;BME280;57790;51.356;-2.906;2023-02-17T11:09:02;102505.13;;;12.04;100.00
70370;BME280;57790;51.356;-2.906;2023-02-17T11:15:22;102515.47;;;12.07;100.00
70370;BME280;57790;51.356;-2.906;2023-02-17T11:18:35;102532.84;;;12.11;100.00
70370;BME280;57790;51.356;-2.906;2023-02-17T11:21:42;102548.22;;;12.08;100.00
70370;BME280;57790;51.356;-2.906;2023-02-17T11:24:43;102539.28;;;12.09;100.00
70370;BME280;57790;51.356;-2.906;2023-02-17T11:27:51;102535.78;;;12.08;100.00
70370;BME280;57790;51.356;-2.906;2023-02-17T11:30:56;102546.38;;;12.19;100.00
70370;BME280;57790;51.356;-2.906;2023-02-17T11:33:57;102536.31;;;12.23;100.00
70370;BME280;57790;51.356;-2.906;2023-02-17T11:37:14;102550.56;;;12.22;100.00
70370;BME280;57790;51.356;-2.906;2023-02-17T11:40:31;102550.31;;;12.25;100.00
70370;BME280;57790;51.356;-2.906;2023-02-17T11:43:33;102566.66;;;12.20;100.00
70370;BME280;57790;51.356;-2.906;2023-02-17T11:46:39;102557.06;;;12.29;100.00
70370;BME280;57790;51.356;-2.906;2023-02-17T11:50:08;102579.13;;;12.20;100.00
70370;BME280;57790;51.356;-2.906;2023-02-17T11:56:46;102572.28;;;12.27;100.00
70370;BME280;57790;51.356;-2.906;2023-02-17T12:33:35;102544.28;;;12.44;100.00
70370;BME280;57790;51.356;-2.906;2023-02-17T12:36:38;102541.38;;;12.47;100.00
70370;BME280;57790;51.356;-2.906;2023-02-17T12:39:47;102550.47;;;12.44;100.00
70370;BME280;57790;51.356;-2.906;2023-02-17T12:42:54;102543.56;;;12.42;100.00
70370;BME280;57790;51.356;-2.906;2023-02-17T12:45:58;102555.31;;;12.39;100.00
70370;BME280;57790;51.356;-2.906;2023-02-17T12:49:16;102551.81;;;12.39;100.00
70370;BME280;57790;51.356;-2.906;2023-02-17T12:52:29;102553.38;;;12.41;100.00
70370;BME280;57790;51.356;-2.906;2023-02-17T12:55:42;102545.72;;;12.48;100.00
70370;BME280;57790;51.356;-2.906;2023-02-17T12:58:48;102528.59;;;12.41;100.00
70370;BME280;57790;51.356;-2.906;2023-02-17T13:02:05;102525.91;;;12.41;100.00
70370;BME280;57790;51.356;-2.906;2023-02-17T13:05:16;102528.91;;;12.47;100.00
70370;BME280;57790;51.356;-2.906;2023-02-17T13:09:06;102510.09;;;12.60;100.00
70370;BME280;57790;51.356;-2.906;2023-02-17T13:12:09;102507.81;;;12.56;100.00
70370;BME280;57790;51.356;-2.906;2023-02-17T13:15:29;102496.78;;;12.60;100.00
70370;BME280;57790;51.356;-2.906;2023-02-17T13:18:33;102497.78;;;12.59;100.00
70370;BME280;57790;51.356;-2.906;2023-02-17T13:21:34;102496.78;;;12.60;100.00
70370;BME280;57790;51.356;-2.906;2023-02-17T13:24:50;102501.28;;;12.60;100.00
70370;BME280;57790;51.356;-2.906;2023-02-17T13:27:51;102502.25;;;12.59;100.00
70370;BME280;57790;51.356;-2.906;2023-02-17T13:30:54;102508.78;;;12.55;100.00
70370;BME280;57790;51.356;-2.906;2023-02-17T13:33:57;102502.13;;;12.60;100.00
70370;BME280;57790;51.356;-2.906;2023-02-17T13:36:59;102492.88;;;12.64;100.00
70370;BME280;57790;51.356;-2.906;2023-02-17T13:40:46;102488.06;;;12.58;100.00
70370;BME280;57790;51.356;-2.906;2023-02-17T13:43:23;102491.19;;;12.63;100.00
70370;BME280;57790;51.356;-2.906;2023-02-17T13:46:25;102489.91;;;12.58;100.00
70370;BME280;57790;51.356;-2.906;2023-02-17T13:49:27;102495.69;;;12.63;100.00
70370;BME280;57790;51.356;-2.906;2023-02-17T13:52:31;102498.06;;;12.66;100.00
70370;BME280;57790;51.356;-2.906;2023-02-17T13:55:32;102499.63;;;12.68;100.00
70370;BME280;57790;51.356;-2.906;2023-02-17T13:58:35;102504.94;;;12.68;100.00
70370;BME280;57790;51.356;-2.906;2023-02-17T14:01:40;102496.13;;;12.68;100.00
70370;BME280;57790;51.356;-2.906;2023-02-17T14:04:42;102507.19;;;12.73;100.00
70370;BME280;57790;51.356;-2.906;2023-02-17T14:07:42;102507.09;;;12.74;100.00
70370;BME280;57790;51.356;-2.906;2023-02-17T14:10:46;102513.25;;;12.75;100.00
70370;BME280;57790;51.356;-2.906;2023-02-17T14:13:52;102512.41;;;12.74;100.00
70370;BME280;57790;51.356;-2.906;2023-02-17T14:17:00;102511.16;;;12.78;100.00
70370;BME280;57790;51.356;-2.906;2023-02-17T14:20:01;102502.34;;;12.78;100.00
70370;BME280;57790;51.356;-2.906;2023-02-17T14:23:12;102514.53;;;12.80;100.00
70370;BME280;57790;51.356;-2.906;2023-02-17T14:29:46;102510.19;;;12.79;100.00
70370;BME280;57790;51.356;-2.906;2023-02-17T14:32:47;102507.94;;;12.75;100.00
70370;BME280;57790;51.356;-2.906;2023-02-17T14:35:58;102503.59;;;12.74;100.00
70370;BME280;57790;51.356;-2.906;2023-02-17T14:39:00;102499.09;;;12.74;100.00
70370;BME280;57790;51.356;-2.906;2023-02-17T14:42:01;102503.59;;;12.74;100.00
70370;BME280;57790;51.356;-2.906;2023-02-17T14:45:01;102501.75;;;12.74;100.00
70370;BME280;57790;51.356;-2.906;2023-02-17T14:48:02;102503.59;;;12.74;100.00
70370;BME280;57790;51.356;-2.906;2023-02-17T14:51:11;102490.16;;;12.75;100.00
70370;BME280;57790;51.356;-2.906;2023-02-17T14:54:17;102505.41;;;12.73;100.00
70370;BME280;57790;51.356;-2.906;2023-02-17T14:57:21;102514.22;;;12.74;100.00
70370;BME280;57790;51.356;-2.906;2023-02-17T15:00:23;102507.19;;;12.73;100.00
70370;BME280;57790;51.356;-2.906;2023-02-17T15:03:24;102523.50;;;12.79;100.00
70370;BME280;57790;51.356;-2.906;2023-02-17T15:06:29;102537.19;;;12.75;100.00
70370;BME280;57790;51.356;-2.906;2023-02-17T15:09:32;102537.34;;;12.73;100.00
70370;BME280;57790;51.356;-2.906;2023-02-17T15:12:32;102545.56;;;12.70;100.00
70370;BME280;57790;51.356;-2.906;2023-02-17T15:15:32;102549.78;;;12.73;100.00
70370;BME280;57790;51.356;-2.906;2023-02-17T15:18:33;102557.91;;;12.71;100.00
70370;BME280;57790;51.356;-2.906;2023-02-17T15:21:34;102559.84;;;12.69;100.00
70370;BME280;57790;51.356;-2.906;2023-02-17T15:24:35;102568.81;;;12.68;100.00
70370;BME280;57790;51.356;-2.906;2023-02-17T15:27:36;102564.47;;;12.67;100.00
70370;BME280;57790;51.356;-2.906;2023-02-17T15:30:36;102568.09;;;12.66;100.00
70370;BME280;57790;51.356;-2.906;2023-02-17T15:33:37;102567.13;;;12.67;100.00
70370;BME280;57790;51.356;-2.906;2023-02-17T15:36:37;102569.91;;;12.66;100.00
70370;BME280;57790;51.356;-2.906;2023-02-17T15:39:38;102580.56;;;12.66;100.00
70370;BME280;57790;51.356;-2.906;2023-02-17T15:42:38;102571.72;;;12.65;100.00
70370;BME280;57790;51.356;-2.906;2023-02-17T15:45:39;102582.66;;;12.62;100.00
70370;BME280;57790;51.356;-2.906;2023-02-17T15:48:40;102581.09;;;12.60;100.00
70370;BME280;57790;51.356;-2.906;2023-02-17T15:51:40;102590.06;;;12.59;100.00
70370;BME280;57790;51.356;-2.906;2023-02-17T15:54:41;102588.47;;;12.56;100.00
70370;BME280;57790;51.356;-2.906;2023-02-17T15:57:55;102589.31;;;12.57;100.00
70370;BME280;57790;51.356;-2.906;2023-02-17T16:00:59;102584.84;;;12.57;100.00
70370;BME280;57790;51.356;-2.906;2023-02-17T16:04:00;102592.09;;;12.55;100.00
70370;BME280;57790;51.356;-2.906;2023-02-17T16:07:01;102594.75;;;12.55;100.00
70370;BME280;57790;51.356;-2.906;2023-02-17T16:10:02;102592.25;;;12.54;100.00
70370;BME280;57790;51.356;-2.906;2023-02-17T16:13:03;102593.06;;;12.54;100.00
70370;BME280;57790;51.356;-2.906;2023-02-17T16:16:03;102594.06;;;12.53;100.00
70370;BME280;57790;51.356;-2.906;2023-02-17T16:19:04;102593.22;;;12.52;100.00
70370;BME280;57790;51.356;-2.906;2023-02-17T16:22:04;102596.84;;;12.51;100.00
70370;BME280;57790;51.356;-2.906;2023-02-17T16:25:05;102605.94;;;12.49;100.00
70370;BME280;57790;51.356;-2.906;2023-02-17T16:28:11;102596.28;;;12.48;100.00
70370;BME280;57790;51.356;-2.906;2023-02-17T16:31:13;102606.91;;;12.48;100.00
70370;BME280;57790;51.356;-2.906;2023-02-17T16:34:16;102606.19;;;12.46;100.00
70370;BME280;57790;51.356;-2.906;2023-02-17T16:37:17;102611.66;;;12.44;100.00
70370;BME280;57790;51.356;-2.906;2023-02-17T16:40:18;102612.50;;;12.45;100.00
70370;BME280;57790;51.356;-2.906;2023-02-17T16:43:22;102597.47;;;12.44;100.00
70370;BME280;57790;51.356;-2.906;2023-02-17T16:46:29;102611.75;;;12.43;100.00
70370;BME280;57790;51.356;-2.906;2023-02-17T16:49:33;102605.47;;;12.44;100.00
70370;BME280;57790;51.356;-2.906;2023-02-17T16:52:35;102619.03;;;12.41;100.00
70370;BME280;57790;51.356;-2.906;2023-02-17T16:55:36;102619.03;;;12.41;100.00
70370;BME280;57790;51.356;-2.906;2023-02-17T16:58:36;102617.59;;;12.37;100.00
70370;BME280;57790;51.356;-2.906;2023-02-17T17:01:37;102616.63;;;12.38;100.00